createdAt,value
2019-02-14T00:03:26.443Z,62.40
2019-02-14T00:07:30.996Z,62.30
2019-02-14T00:11:35.803Z,63.90
2019-02-14T00:15:40.327Z,64.40
2019-02-14T00:19:45.134Z,66.10
2019-02-14T00:23:49.752Z,66.30
2019-02-14T00:27:54.292Z,65.30
2019-02-14T00:31:59.054Z,65.70
2019-02-14T00:36:03.625Z,65.30
2019-02-14T00:40:08.431Z,64.40
2019-02-14T00:44:12.977Z,63.90
2019-02-14T00:48:17.523Z,65.10
2019-02-14T00:52:24.540Z,64.80
2019-02-14T00:56:29.082Z,65.10
2019-02-14T01:00:33.827Z,65.00
2019-02-14T01:04:38.436Z,65.10
2019-02-14T01:08:43.269Z,64.90
2019-02-14T01:12:48.063Z,65.00
2019-02-14T01:16:55.709Z,64.60
2019-02-14T01:21:00.491Z,65.10
2019-02-14T01:25:05.448Z,64.90
2019-02-14T01:29:09.996Z,64.90
2019-02-14T01:33:14.803Z,64.80
2019-02-14T01:37:19.344Z,65.00
2019-02-14T01:41:24.083Z,66.00
2019-02-14T01:45:28.625Z,66.40
2019-02-14T01:49:33.460Z,66.00
2019-02-14T01:53:37.995Z,66.40
2019-02-14T01:57:42.535Z,66.80
2019-02-14T02:01:47.369Z,66.90
2019-02-14T02:05:51.945Z,67.80
2019-02-14T02:09:56.757Z,67.00
2019-02-14T02:14:01.302Z,66.80
2019-02-14T02:18:05.839Z,66.60
2019-02-14T02:22:10.626Z,67.00
2019-02-14T02:26:15.164Z,67.60
2019-02-14T02:30:20.097Z,66.50
2019-02-14T02:34:24.661Z,66.50
2019-02-14T02:38:29.220Z,66.00
2019-02-14T02:42:33.913Z,66.00
2019-02-14T02:46:38.455Z,65.90
2019-02-14T02:50:43.310Z,65.60
2019-02-14T02:54:47.844Z,65.80
2019-02-14T02:58:52.466Z,65.60
2019-02-14T03:02:57.260Z,66.40
2019-02-14T03:07:01.825Z,66.60
2019-02-14T03:11:06.660Z,66.40
2019-02-14T03:15:12.090Z,67.00
2019-02-14T03:19:16.731Z,66.60
2019-02-14T03:23:21.436Z,66.50
2019-02-14T03:27:25.999Z,66.40
2019-02-14T03:31:31.688Z,66.30
2019-02-14T03:35:36.271Z,66.40
2019-02-14T03:39:41.069Z,66.80
2019-02-14T03:43:45.616Z,67.00
2019-02-14T03:47:50.184Z,67.00
2019-02-14T03:51:54.983Z,67.20
2019-02-14T03:55:59.536Z,66.80
2019-02-14T04:00:07.711Z,66.40
2019-02-14T04:04:12.286Z,66.80
2019-02-14T04:08:16.861Z,67.00
2019-02-14T04:12:21.636Z,67.10
2019-02-14T04:16:26.177Z,66.70
2019-02-14T04:20:31.009Z,66.30
2019-02-14T04:24:35.564Z,66.20
2019-02-14T04:28:40.076Z,66.60
2019-02-14T04:32:44.959Z,66.80
2019-02-14T04:36:49.516Z,68.30
2019-02-14T04:40:54.303Z,68.60
2019-02-14T04:44:58.828Z,69.20
2019-02-14T04:49:03.368Z,69.40
2019-02-14T04:53:08.183Z,68.90
2019-02-14T04:57:12.720Z,68.50
2019-02-14T05:01:17.571Z,67.90
2019-02-14T05:05:22.135Z,67.50
2019-02-14T05:09:26.660Z,67.10
2019-02-14T05:13:31.202Z,67.00
2019-02-14T05:17:35.733Z,67.20
2019-02-14T05:21:40.556Z,67.20
2019-02-14T05:25:45.116Z,67.60
2019-02-14T05:29:49.901Z,67.50
2019-02-14T05:33:54.656Z,67.40
2019-02-14T05:37:59.468Z,67.40
2019-02-14T05:42:04.120Z,67.00
2019-02-14T05:46:08.747Z,66.80
2019-02-14T05:50:14.288Z,66.70
2019-02-14T05:54:18.833Z,66.60
2019-02-14T05:58:23.371Z,66.70
2019-02-14T06:02:28.027Z,67.40
2019-02-14T06:06:32.591Z,68.30
2019-02-14T06:10:37.119Z,67.70
2019-02-14T06:14:41.667Z,67.50
2019-02-14T06:18:46.301Z,67.90
2019-02-14T06:22:51.934Z,68.00
2019-02-14T06:26:56.448Z,68.40
2019-02-14T06:31:03.059Z,68.20
2019-02-14T06:35:11.397Z,68.00
2019-02-14T06:39:16.038Z,68.10
2019-02-14T06:43:20.735Z,67.90
2019-02-14T06:47:25.291Z,68.70
2019-02-14T06:51:30.102Z,69.20
2019-02-14T06:55:34.643Z,68.40
2019-02-14T06:59:39.471Z,68.70
2019-02-14T07:03:44.340Z,72.20
2019-02-14T07:07:48.885Z,72.40
2019-02-14T07:11:53.403Z,72.40
2019-02-14T07:15:57.947Z,73.20
2019-02-14T07:20:02.741Z,74.40
2019-02-14T07:24:07.295Z,73.80
2019-02-14T07:28:11.819Z,72.50
2019-02-14T07:32:16.368Z,71.70
2019-02-14T07:36:20.934Z,70.40
2019-02-14T07:40:26.537Z,69.70
2019-02-14T07:44:31.081Z,68.80
2019-02-14T07:48:35.628Z,68.20
2019-02-14T07:52:40.157Z,67.40
2019-02-14T07:56:44.733Z,67.10
2019-02-14T08:00:49.293Z,67.10
2019-02-14T08:04:53.815Z,66.30
2019-02-14T08:08:58.354Z,65.80
2019-02-14T08:13:02.877Z,65.40
2019-02-14T08:17:07.440Z,66.00
2019-02-14T08:21:12.000Z,65.40
2019-02-14T08:25:16.540Z,64.90
2019-02-14T08:29:21.110Z,65.90
2019-02-14T08:33:25.656Z,63.90
2019-02-14T08:37:30.205Z,63.60
2019-02-14T08:41:34.773Z,62.70
2019-02-14T08:45:39.311Z,62.30
2019-02-14T08:49:43.873Z,62.40
2019-02-14T08:53:48.437Z,61.90
2019-02-14T08:57:53.043Z,61.90
2019-02-14T09:01:57.716Z,61.60
2019-02-14T09:06:02.520Z,62.40
2019-02-14T09:10:08.908Z,62.30
2019-02-14T09:14:13.429Z,62.30
2019-02-14T09:18:17.973Z,61.70
2019-02-14T09:22:22.536Z,62.60
2019-02-14T09:26:27.081Z,61.40
2019-02-14T09:30:31.696Z,60.90
2019-02-14T09:34:36.241Z,60.00
2019-02-14T09:38:40.771Z,58.60
2019-02-14T09:42:45.331Z,58.10
2019-02-14T09:46:49.882Z,57.60
2019-02-14T09:50:54.469Z,56.70
2019-02-14T09:54:58.999Z,56.50
2019-02-14T09:59:03.542Z,56.90
2019-02-14T10:03:08.080Z,56.40
2019-02-14T10:07:12.632Z,56.60
2019-02-14T10:11:17.186Z,56.40
2019-02-14T10:15:21.708Z,54.70
2019-02-14T10:19:26.310Z,54.50
2019-02-14T10:23:30.841Z,54.40
2019-02-14T10:27:35.392Z,53.10
2019-02-14T10:31:39.951Z,53.00
2019-02-14T10:35:44.489Z,52.60
2019-02-14T10:39:49.036Z,52.30
2019-02-14T10:43:53.615Z,52.50
2019-02-14T10:47:58.177Z,52.50
2019-02-14T10:52:02.729Z,51.50
2019-02-14T10:56:07.263Z,51.50
2019-02-14T11:00:18.184Z,49.40
2019-02-14T11:04:22.720Z,49.40
2019-02-14T11:08:31.538Z,49.20
2019-02-14T11:12:33.846Z,49.50
2019-02-14T11:16:38.395Z,49.00
2019-02-14T11:20:42.916Z,49.80
2019-02-14T11:24:47.732Z,48.60
2019-02-14T11:28:52.291Z,48.90
2019-02-14T11:32:56.858Z,48.70
2019-02-14T11:37:01.399Z,46.80
2019-02-14T11:41:06.320Z,45.50
2019-02-14T11:45:12.884Z,42.90
2019-02-14T11:49:17.420Z,44.60
2019-02-14T11:53:22.048Z,44.00
2019-02-14T11:57:26.592Z,42.60
2019-02-14T12:01:31.128Z,41.80
2019-02-14T12:05:35.697Z,41.30
2019-02-14T12:09:40.252Z,41.90
2019-02-14T12:13:44.800Z,38.70
2019-02-14T12:17:49.348Z,37.70
2019-02-14T12:21:53.885Z,36.80
2019-02-14T12:25:58.450Z,36.80
2019-02-14T12:30:03.042Z,35.70
2019-02-14T12:34:07.600Z,35.70
2019-02-14T12:38:12.164Z,33.20
2019-02-14T12:42:16.717Z,31.00
2019-02-14T12:46:21.277Z,33.30
2019-02-14T12:50:25.834Z,32.60
2019-02-14T12:54:30.386Z,29.30
2019-02-14T12:58:34.938Z,29.00
2019-02-14T13:02:39.461Z,30.20
2019-02-14T13:06:44.024Z,31.20
2019-02-14T13:10:48.577Z,29.30
2019-02-14T13:14:53.173Z,28.40
2019-02-14T13:18:57.746Z,26.00
2019-02-14T13:23:02.481Z,24.70
2019-02-14T13:27:07.045Z,22.80
2019-02-14T13:31:11.601Z,22.50
2019-02-14T13:35:16.156Z,21.60
2019-02-14T13:39:29.324Z,20.70
2019-02-14T13:43:26.968Z,20.30
2019-02-14T13:47:31.560Z,19.50
2019-02-14T13:51:36.121Z,20.00
2019-02-14T13:55:41.004Z,20.20
2019-02-14T13:59:45.561Z,20.20
2019-02-14T14:03:50.125Z,20.70
2019-02-14T14:07:54.657Z,21.00
2019-02-14T14:11:59.236Z,21.00
2019-02-14T14:16:03.809Z,20.80
2019-02-14T14:20:08.768Z,22.10
2019-02-14T14:24:13.335Z,22.80
2019-02-14T14:28:17.864Z,22.40
2019-02-14T14:32:22.453Z,21.50
2019-02-14T14:36:27.016Z,20.90
2019-02-14T14:40:31.619Z,20.70
2019-02-14T14:44:43.346Z,20.50
2019-02-14T14:48:47.905Z,20.30
2019-02-14T14:52:52.464Z,20.10
2019-02-14T14:56:57.026Z,20.40
2019-02-14T15:01:01.664Z,20.90
2019-02-14T15:05:06.232Z,22.00
2019-02-14T15:09:10.832Z,21.70
2019-02-14T15:13:15.392Z,21.30
2019-02-14T15:17:19.942Z,22.90
2019-02-14T15:21:24.498Z,21.70
2019-02-14T15:25:29.113Z,21.90
2019-02-14T15:29:33.647Z,22.10
2019-02-14T15:33:38.217Z,23.70
2019-02-14T15:37:44.580Z,25.70
2019-02-14T15:41:49.035Z,27.20
2019-02-14T15:45:53.585Z,28.00
2019-02-14T15:49:58.148Z,28.20
2019-02-14T15:54:03.163Z,28.60
2019-02-14T15:58:09.273Z,29.90
2019-02-14T16:02:14.078Z,31.00
2019-02-14T16:06:18.707Z,30.70
2019-02-14T16:10:24.999Z,31.20
2019-02-14T16:14:29.868Z,32.20
2019-02-14T16:18:34.411Z,32.80
2019-02-14T16:22:40.200Z,33.40
2019-02-14T16:26:45.271Z,34.00
2019-02-14T16:30:50.088Z,35.20
2019-02-14T16:34:54.991Z,36.20
2019-02-14T16:39:01.358Z,38.00
2019-02-14T16:43:07.424Z,40.10
2019-02-14T16:47:11.970Z,41.40
2019-02-14T16:51:16.511Z,42.10
2019-02-14T16:55:21.345Z,42.60
2019-02-14T16:59:25.898Z,43.00
2019-02-14T17:03:30.720Z,43.20
2019-02-14T17:07:35.280Z,43.40
2019-02-14T17:11:39.823Z,43.80
2019-02-14T17:15:44.377Z,44.10
2019-02-14T17:19:49.051Z,44.50
2019-02-14T17:23:53.600Z,44.90
2019-02-14T17:27:58.167Z,45.10
2019-02-14T17:32:02.709Z,44.90
2019-02-14T17:36:07.284Z,45.10
2019-02-14T17:40:12.227Z,45.30
2019-02-14T17:44:16.819Z,46.00
2019-02-14T17:48:21.371Z,46.30
2019-02-14T17:52:25.946Z,46.70
2019-02-14T17:56:30.573Z,46.90
2019-02-14T18:00:35.211Z,48.20
2019-02-14T18:04:39.767Z,47.60
2019-02-14T18:08:44.356Z,47.90
2019-02-14T18:12:48.977Z,47.70
2019-02-14T18:16:53.526Z,48.50
2019-02-14T18:20:59.365Z,48.70
2019-02-14T18:25:05.698Z,48.90
2019-02-14T18:29:10.256Z,49.30
2019-02-14T18:33:14.840Z,49.30
2019-02-14T18:37:19.383Z,49.40
2019-02-14T18:41:25.327Z,49.50
2019-02-14T18:45:30.155Z,50.20
2019-02-14T18:49:34.993Z,49.50
2019-02-14T18:53:39.539Z,49.80
2019-02-14T18:57:44.085Z,49.70
2019-02-14T19:01:49.391Z,50.20
2019-02-14T19:05:53.936Z,50.10
2019-02-14T19:09:58.983Z,50.20
2019-02-14T19:14:03.551Z,50.40
2019-02-14T19:18:08.090Z,50.90
2019-02-14T19:22:12.738Z,50.90
2019-02-14T19:26:17.303Z,50.80
2019-02-14T19:30:22.126Z,51.20
2019-02-14T19:34:26.692Z,51.60
2019-02-14T19:38:31.237Z,52.10
2019-02-14T19:42:36.306Z,52.70
2019-02-14T19:46:40.905Z,52.50
2019-02-14T19:50:45.633Z,51.90
2019-02-14T19:54:51.068Z,52.00
2019-02-14T19:58:55.793Z,52.10
2019-02-14T20:03:00.402Z,52.10
2019-02-14T20:07:04.940Z,52.20
2019-02-14T20:11:09.784Z,52.50
2019-02-14T20:15:15.405Z,53.00
2019-02-14T20:19:20.381Z,53.40
2019-02-14T20:23:24.966Z,53.60
2019-02-14T20:27:29.718Z,53.70
2019-02-14T20:31:34.986Z,53.90
2019-02-14T20:35:39.600Z,54.20
2019-02-14T20:39:44.739Z,54.90
2019-02-14T20:43:51.488Z,54.30
2019-02-14T20:47:57.474Z,54.60
2019-02-14T20:52:02.472Z,55.00
2019-02-14T20:56:07.050Z,55.40
2019-02-14T21:00:30.082Z,55.50
2019-02-14T21:04:34.627Z,55.60
2019-02-14T21:08:39.353Z,55.60
2019-02-14T21:12:44.175Z,55.60
2019-02-14T21:16:49.032Z,56.30
2019-02-14T21:20:53.888Z,56.40
2019-02-14T21:24:58.478Z,55.70
2019-02-14T21:29:03.264Z,55.50
2019-02-14T21:33:08.750Z,55.70
2019-02-14T21:37:14.052Z,55.60
2019-02-14T21:41:19.211Z,56.80
2019-02-14T21:45:23.740Z,56.60
2019-02-14T21:49:28.370Z,56.80
2019-02-14T21:53:32.941Z,57.10
2019-02-14T21:57:40.233Z,57.20
2019-02-14T22:01:45.126Z,56.90
2019-02-14T22:05:49.846Z,57.20
2019-02-14T22:09:54.479Z,57.20
2019-02-14T22:13:59.021Z,57.50
2019-02-14T22:18:03.829Z,57.30
2019-02-14T22:22:08.731Z,57.20
2019-02-14T22:26:13.404Z,57.20
2019-02-14T22:30:18.473Z,57.30
2019-02-14T22:34:23.041Z,57.20
2019-02-14T22:38:27.661Z,57.30
2019-02-14T22:42:32.316Z,57.40
2019-02-14T22:46:36.862Z,57.20
2019-02-14T22:50:41.667Z,57.20
2019-02-14T22:54:46.272Z,57.20
2019-02-14T22:58:50.976Z,57.20
2019-02-14T23:02:55.882Z,57.30
2019-02-14T23:07:01.504Z,57.20
2019-02-14T23:11:06.143Z,57.20
2019-02-14T23:15:10.684Z,57.20
2019-02-14T23:19:15.232Z,57.40
2019-02-14T23:23:20.851Z,57.60
2019-02-14T23:27:25.403Z,57.90
2019-02-14T23:31:30.342Z,58.30
2019-02-14T23:35:36.678Z,58.70
2019-02-14T23:39:41.276Z,59.10
2019-02-14T23:43:45.834Z,59.00
2019-02-14T23:47:50.383Z,59.10
2019-02-14T23:51:55.195Z,58.90
2019-02-14T23:56:00.110Z,59.10
